Etusivu
METAR-TAF:

METAR-TAF

Lentoasemat :

Netaji Subhash Chandra Bosen kansainvälinen lentoasema

Kalkutta, Intia

Leveyspiiri: 22-39N, Pituuspiiri: 088-27E, korkeus merenpinnasta: 4 m

Tämänhetkinen sää

Tämä raportti tehtiin 21 minuuttia sitten, kello 20.30 UTC
Tuuli 6 kn luoteesta
Lämpötila 19°C
Kosteus 94%
Ilmanpaine 1014 hPa
Näkyvyys: 3200 m
Hajanaisia pilviä 1500 ft:n korkeudessa
Pilvistä 9000 ft:n korkeudessa
sadetta

METAR: VECC 262030Z 32006KT 3200 RA SCT015 OVC090 19/18 Q1014 BECMG 3000 RA

Aika: 02:21 (20:51 UTC)

Sääennuste

Tämä raportti tehtiin 3 tuntia ja 51 minuuttia sitten, kello 17.00 UTC
Ennuste voimassa 26. päivästä klo 18 UTC - 27. päivään klo 03 UTC
Tuuli 5 kn etelästä
Muutamia pilviä 2000 ft:n korkeudessa
Hajanaisia pilviä 10000 ft:n korkeudessa
Tulossa
27. päivästä klo 00 UTC - 27. päivään klo 02 UTC
Tuuli kn pohjoisesta
Näkyvyys: 1200 m
utua

TAF: VECC 261700Z 2618/2703 18005KT FEW020 SCT100 BECMG 2700/2702 00000KT 1200 BR

Säähavainnot ja -ennusteet yli 4000 lentoasemalta (METAR- ja TAF-raportit).

Käytössä olevat sääasemat on merkitty karttaan keltaisilla ja punaisilla pisteillä.

Aseta hiiri pisteen päälle nähdäksesi sääaseman nimen.

Klikkaa sitten nähdäksesi säähavainnot ja -ennusteet.

Kartan vaihtaminen: klikkaa mustalla rastilla varustettuja vihreitä pisteitä, niin voit zoomata sisään; viivalla varustettua vihreää pistettä, niin voit zoomata ulos tai vihreitä nuolia, niin pääset viereisille kartoille.


METAR-TAF: